sensor_id;sensor_type;location;lat;lon;timestamp;P1;durP1;ratioP1;P2;durP2;ratioP2
2486;SDS011;1254;49.144;8.212;2022-10-16T19:50:33;13.60;;;10.47;;
2486;SDS011;1254;49.144;8.212;2022-10-16T19:53:01;12.77;;;9.17;;
2486;SDS011;1254;49.144;8.212;2022-10-16T19:55:30;10.83;;;9.70;;
2486;SDS011;1254;49.144;8.212;2022-10-16T19:57:58;13.20;;;10.90;;
2486;SDS011;1254;49.144;8.212;2022-10-16T20:00:26;10.40;;;9.50;;
2486;SDS011;1254;49.144;8.212;2022-10-16T20:02:53;10.83;;;8.73;;
2486;SDS011;1254;49.144;8.212;2022-10-16T20:05:21;8.87;;;7.83;;
2486;SDS011;1254;49.144;8.212;2022-10-16T20:07:51;11.33;;;10.13;;
2486;SDS011;1254;49.144;8.212;2022-10-16T20:10:19;9.87;;;8.87;;
2486;SDS011;1254;49.144;8.212;2022-10-16T20:12:47;13.60;;;12.30;;
2486;SDS011;1254;49.144;8.212;2022-10-16T20:15:14;13.00;;;8.33;;
2486;SDS011;1254;49.144;8.212;2022-10-16T20:17:43;7.83;;;7.00;;
2486;SDS011;1254;49.144;8.212;2022-10-16T20:20:10;8.63;;;7.17;;
2486;SDS011;1254;49.144;8.212;2022-10-16T20:22:39;8.23;;;7.53;;
2486;SDS011;1254;49.144;8.212;2022-10-16T20:25:08;8.13;;;7.43;;
2486;SDS011;1254;49.144;8.212;2022-10-16T20:27:36;8.17;;;7.33;;
2486;SDS011;1254;49.144;8.212;2022-10-16T20:30:04;10.33;;;7.33;;
2486;SDS011;1254;49.144;8.212;2022-10-16T20:32:33;10.30;;;9.00;;
2486;SDS011;1254;49.144;8.212;2022-10-16T20:35:01;9.00;;;6.80;;
2486;SDS011;1254;49.144;8.212;2022-10-16T20:37:29;10.20;;;9.20;;
2486;SDS011;1254;49.144;8.212;2022-10-16T20:39:57;7.53;;;6.83;;
2486;SDS011;1254;49.144;8.212;2022-10-16T20:42:26;11.77;;;7.43;;
2486;SDS011;1254;49.144;8.212;2022-10-16T20:44:54;14.90;;;7.40;;
2486;SDS011;1254;49.144;8.212;2022-10-16T20:47:22;10.60;;;8.40;;
2486;SDS011;1254;49.144;8.212;2022-10-16T20:49:51;11.90;;;7.00;;
2486;SDS011;1254;49.144;8.212;2022-10-16T20:52:19;9.53;;;7.00;;
2486;SDS011;1254;49.144;8.212;2022-10-16T20:54:47;7.27;;;6.57;;
2486;SDS011;1254;49.144;8.212;2022-10-16T20:57:15;7.97;;;7.17;;
2486;SDS011;1254;49.144;8.212;2022-10-16T20:59:44;10.37;;;9.30;;
2486;SDS011;1254;49.144;8.212;2022-10-16T21:02:12;11.93;;;6.93;;
2486;SDS011;1254;49.144;8.212;2022-10-16T21:04:40;9.93;;;7.93;;
2486;SDS011;1254;49.144;8.212;2022-10-16T21:07:08;13.00;;;8.07;;
2486;SDS011;1254;49.144;8.212;2022-10-16T21:09:36;8.20;;;6.70;;
2486;SDS011;1254;49.144;8.212;2022-10-16T21:12:04;10.00;;;9.03;;
2486;SDS011;1254;49.144;8.212;2022-10-16T21:14:32;8.63;;;7.73;;
2486;SDS011;1254;49.144;8.212;2022-10-16T21:17:01;7.67;;;6.87;;
2486;SDS011;1254;49.144;8.212;2022-10-16T21:19:30;9.83;;;8.93;;
2486;SDS011;1254;49.144;8.212;2022-10-16T21:21:58;7.30;;;6.60;;
2486;SDS011;1254;49.144;8.212;2022-10-16T21:24:25;6.70;;;6.20;;
2486;SDS011;1254;49.144;8.212;2022-10-16T21:26:53;6.60;;;5.90;;
2486;SDS011;1254;49.144;8.212;2022-10-16T21:29:22;8.33;;;6.40;;
2486;SDS011;1254;49.144;8.212;2022-10-16T21:31:50;6.13;;;5.70;;
2486;SDS011;1254;49.144;8.212;2022-10-16T21:34:19;6.63;;;6.13;;
2486;SDS011;1254;49.144;8.212;2022-10-16T21:36:47;8.87;;;7.97;;
2486;SDS011;1254;49.144;8.212;2022-10-16T21:39:16;12.93;;;8.87;;
2486;SDS011;1254;49.144;8.212;2022-10-16T21:41:46;13.80;;;9.73;;
2486;SDS011;1254;49.144;8.212;2022-10-16T21:44:15;16.10;;;9.77;;
2486;SDS011;1254;49.144;8.212;2022-10-16T21:46:45;8.23;;;7.43;;
2486;SDS011;1254;49.144;8.212;2022-10-16T21:49:15;6.97;;;6.37;;
2486;SDS011;1254;49.144;8.212;2022-10-16T21:51:47;12.50;;;10.87;;
2486;SDS011;1254;49.144;8.212;2022-10-16T21:54:16;8.00;;;7.30;;
2486;SDS011;1254;49.144;8.212;2022-10-16T21:56:45;7.30;;;5.70;;
2486;SDS011;1254;49.144;8.212;2022-10-16T21:59:13;7.87;;;6.60;;
2486;SDS011;1254;49.144;8.212;2022-10-16T22:01:41;9.93;;;5.60;;
2486;SDS011;1254;49.144;8.212;2022-10-16T22:04:10;11.40;;;5.33;;
2486;SDS011;1254;49.144;8.212;2022-10-16T22:06:38;6.67;;;5.97;;
2486;SDS011;1254;49.144;8.212;2022-10-16T22:09:08;9.63;;;6.57;;
2486;SDS011;1254;49.144;8.212;2022-10-16T22:11:39;5.40;;;5.00;;
2486;SDS011;1254;49.144;8.212;2022-10-16T22:14:09;8.77;;;5.17;;
2486;SDS011;1254;49.144;8.212;2022-10-16T22:16:38;5.83;;;5.23;;
2486;SDS011;1254;49.144;8.212;2022-10-16T22:19:07;6.00;;;5.50;;
2486;SDS011;1254;49.144;8.212;2022-10-16T22:21:35;5.53;;;4.90;;
2486;SDS011;1254;49.144;8.212;2022-10-16T22:24:05;5.60;;;4.33;;
2486;SDS011;1254;49.144;8.212;2022-10-16T22:26:35;4.90;;;4.50;;
2486;SDS011;1254;49.144;8.212;2022-10-16T22:29:10;3.90;;;3.60;;
2486;SDS011;1254;49.144;8.212;2022-10-16T22:31:39;4.83;;;4.13;;
2486;SDS011;1254;49.144;8.212;2022-10-16T22:34:09;14.73;;;4.03;;
2486;SDS011;1254;49.144;8.212;2022-10-16T22:36:38;7.67;;;4.20;;
2486;SDS011;1254;49.144;8.212;2022-10-16T22:39:07;4.40;;;3.87;;
2486;SDS011;1254;49.144;8.212;2022-10-16T22:41:36;3.90;;;3.63;;
2486;SDS011;1254;49.144;8.212;2022-10-16T22:44:04;3.83;;;3.43;;
2486;SDS011;1254;49.144;8.212;2022-10-16T22:46:31;6.20;;;3.40;;
2486;SDS011;1254;49.144;8.212;2022-10-16T22:48:59;3.90;;;3.60;;
2486;SDS011;1254;49.144;8.212;2022-10-16T22:51:27;4.80;;;3.00;;
2486;SDS011;1254;49.144;8.212;2022-10-16T22:53:56;10.77;;;4.20;;
2486;SDS011;1254;49.144;8.212;2022-10-16T22:56:25;4.10;;;3.80;;
2486;SDS011;1254;49.144;8.212;2022-10-16T22:58:53;7.00;;;3.57;;
2486;SDS011;1254;49.144;8.212;2022-10-16T23:01:22;4.00;;;3.70;;
2486;SDS011;1254;49.144;8.212;2022-10-16T23:03:52;6.20;;;4.50;;
2486;SDS011;1254;49.144;8.212;2022-10-16T23:06:20;4.50;;;3.70;;
2486;SDS011;1254;49.144;8.212;2022-10-16T23:08:49;6.13;;;4.27;;
2486;SDS011;1254;49.144;8.212;2022-10-16T23:11:18;9.37;;;3.70;;
2486;SDS011;1254;49.144;8.212;2022-10-16T23:13:47;10.93;;;4.00;;
2486;SDS011;1254;49.144;8.212;2022-10-16T23:16:16;9.33;;;4.40;;
2486;SDS011;1254;49.144;8.212;2022-10-16T23:18:46;7.40;;;3.60;;
2486;SDS011;1254;49.144;8.212;2022-10-16T23:21:15;12.50;;;4.13;;
2486;SDS011;1254;49.144;8.212;2022-10-16T23:23:45;10.30;;;4.60;;
2486;SDS011;1254;49.144;8.212;2022-10-16T23:26:14;7.07;;;3.83;;
2486;SDS011;1254;49.144;8.212;2022-10-16T23:28:43;13.60;;;4.30;;
2486;SDS011;1254;49.144;8.212;2022-10-16T23:31:12;16.43;;;4.03;;
2486;SDS011;1254;49.144;8.212;2022-10-16T23:33:41;5.47;;;3.87;;
2486;SDS011;1254;49.144;8.212;2022-10-16T23:36:10;19.40;;;5.07;;
2486;SDS011;1254;49.144;8.212;2022-10-16T23:38:40;10.10;;;4.43;;
2486;SDS011;1254;49.144;8.212;2022-10-16T23:41:08;9.20;;;4.33;;
2486;SDS011;1254;49.144;8.212;2022-10-16T23:43:36;6.10;;;4.10;;
2486;SDS011;1254;49.144;8.212;2022-10-16T23:46:04;5.83;;;4.13;;
2486;SDS011;1254;49.144;8.212;2022-10-16T23:48:34;5.40;;;4.40;;
2486;SDS011;1254;49.144;8.212;2022-10-16T23:51:03;7.93;;;4.23;;
2486;SDS011;1254;49.144;8.212;2022-10-16T23:53:31;11.90;;;4.37;;
2486;SDS011;1254;49.144;8.212;2022-10-16T23:56:00;5.37;;;3.80;;
2486;SDS011;1254;49.144;8.212;2022-10-16T23:58:28;9.40;;;4.20;;
